Meteo Giornale » Osservazioni meteo Stati Uniti (USA) » Waterville

ore: 12:56 - Osservazioni Meteo Waterville
Lat. 44° 32' N Lon. 69° 41' W Alt. 101 metri s.l.m.

sereno

23 °C

Sereno

Temp. 24 Ore

11 °C

24 °C

Nord

7.4 Km/h

Dew point 12 °C

Umidità 49 %

Visibilità  10 Km

Il sole sorge alle ore 06:01

Il sole tramonta alle ore 19:15

Data e Ora Cielo e Fenomeni T °C DP °C Um. % Pres. hPa Vis. km Vento km/h
Oggi h: 12:56 sereno Sereno 23 12 49 1017 10 N 7.4
Oggi h: 11:56 sereno Sereno 21 12 56 1018 10 N 11.1
Oggi h: 10:56 sereno Sereno 19 12 63 1018 10 N 9.3
Oggi h: 09:56 sereno Sereno 18 12 67 1018 10 NE 9.3
Oggi h: 08:56 sereno Sereno 16 11 72 1018 10 N/NE 13
Oggi h: 07:56 sereno Sereno 14 11 82 1018 10 N/NE 11.1
Oggi h: 06:56 coperto Coperto 12 10 87 1018 10 N/NE 9.3
Oggi h: 05:56 poco_nuvoloso Poco Nuvoloso 11 10 93 1017 10 N/NE 9.3
Oggi h: 04:56 sereno Sereno 11 10 93 1017 10 NE 7.4
Oggi h: 03:56 molto_nuvoloso Molto Nuvoloso 11 11 100 1017 10 N/NE 9.3
Oggi h: 02:56 molto_nuvoloso Molto Nuvoloso 11 10 93 1017 10 N 0
Oggi h: 01:56 sereno Sereno 11 11 100 1018 10 N 0
Oggi h: 00:56 sereno Sereno 11 10 93 1018 10 N 0
Ieri h: 23:56 sereno Sereno 13 11 87 1017 10 N 0
Ieri h: 22:56 sereno Sereno 14 11 82 1018 10 N 5.5
Ieri h: 21:56 sereno Sereno 14 12 87 1017 10 N 5.5
Ieri h: 20:56 sereno Sereno 16 12 77 1017 10 N 0
Ieri h: 19:56 sereno Sereno 16 12 77 1017 10 N 0
Ieri h: 18:56 sereno Sereno 21 12 56 1017 10 N 0
Ieri h: 17:56 sereno Sereno 23 11 46 1017 10 N 0
Ieri h: 16:56 sereno Sereno 24 10 41 1017 10 N 7.4
Ieri h: 15:56 sereno Sereno 24 9 38 1017 10 N 5.5
Ieri h: 14:56 sereno Sereno 23 9 40 1018 10 N 5.5
Ieri h: 13:56 sereno Sereno 22 9 43 1018 10 N/NO 11.1